createdAt,value
2018-03-06T00:01:46.046Z,8.74
2018-03-06T00:04:13.510Z,8.69
2018-03-06T00:06:40.967Z,8.68
2018-03-06T00:09:08.433Z,8.66
2018-03-06T00:11:35.898Z,8.58
2018-03-06T00:14:03.408Z,8.48
2018-03-06T00:16:30.849Z,8.42
2018-03-06T00:18:58.306Z,8.38
2018-03-06T00:21:25.747Z,8.35
2018-03-06T00:23:53.364Z,8.37
2018-03-06T00:26:20.906Z,8.36
2018-03-06T00:28:48.358Z,8.30
2018-03-06T00:31:15.828Z,8.27
2018-03-06T00:33:43.268Z,8.22
2018-03-06T00:36:10.759Z,8.11
2018-03-06T00:38:38.199Z,8.05
2018-03-06T00:41:05.669Z,8.02
2018-03-06T00:43:33.113Z,8.03
2018-03-06T00:46:01.443Z,8.04
2018-03-06T00:48:28.893Z,7.99
2018-03-06T00:50:56.325Z,7.98
2018-03-06T00:53:23.780Z,7.99
2018-03-06T00:55:51.240Z,7.96
2018-03-06T00:58:18.696Z,7.94
2018-03-06T01:00:46.138Z,7.96
2018-03-06T01:03:13.604Z,7.95
2018-03-06T01:05:41.147Z,7.92
2018-03-06T01:08:08.721Z,7.85
2018-03-06T01:10:36.148Z,7.79
2018-03-06T01:13:03.664Z,7.75
2018-03-06T01:15:31.123Z,7.75
2018-03-06T01:17:58.614Z,7.72
2018-03-06T01:20:26.087Z,7.72
2018-03-06T01:22:53.498Z,7.69
2018-03-06T01:25:21.024Z,7.68
2018-03-06T01:27:48.481Z,7.72
2018-03-06T01:30:15.953Z,7.67
2018-03-06T01:32:43.469Z,7.61
2018-03-06T01:35:11.007Z,7.62
2018-03-06T01:37:38.434Z,7.61
2018-03-06T01:40:05.901Z,7.58
2018-03-06T01:42:33.343Z,7.51
2018-03-06T01:45:00.810Z,7.44
2018-03-06T01:47:28.820Z,7.43
2018-03-06T01:49:56.289Z,7.46
2018-03-06T01:52:23.792Z,7.38
2018-03-06T01:54:51.935Z,7.31
2018-03-06T01:57:20.963Z,7.30
2018-03-06T01:59:48.421Z,7.22
2018-03-06T02:02:15.951Z,7.19
2018-03-06T02:04:43.388Z,7.17
2018-03-06T02:07:11.433Z,7.17
2018-03-06T02:09:38.877Z,7.15
2018-03-06T02:12:06.447Z,7.12
2018-03-06T02:14:33.938Z,7.12
2018-03-06T02:17:01.435Z,7.13
2018-03-06T02:19:28.880Z,7.10
2018-03-06T02:21:56.324Z,7.05
2018-03-06T02:24:23.858Z,7.03
2018-03-06T02:26:51.646Z,7.03
2018-03-06T02:29:19.104Z,7.02
2018-03-06T02:31:46.540Z,6.98
2018-03-06T02:34:13.999Z,6.96
2018-03-06T02:36:41.429Z,6.92
2018-03-06T02:39:08.925Z,6.86
2018-03-06T02:41:36.390Z,6.79
2018-03-06T02:44:03.827Z,6.76
2018-03-06T02:46:31.305Z,6.71
2018-03-06T02:48:58.789Z,6.68
2018-03-06T02:51:26.276Z,6.63
2018-03-06T02:53:53.730Z,6.65
2018-03-06T02:56:21.210Z,6.58
2018-03-06T02:58:48.682Z,6.37
2018-03-06T03:01:16.136Z,6.31
2018-03-06T03:03:43.616Z,6.32
2018-03-06T03:06:11.085Z,6.40
2018-03-06T03:08:38.559Z,6.43
2018-03-06T03:11:06.008Z,6.46
2018-03-06T03:13:33.495Z,6.49
2018-03-06T03:16:00.997Z,6.48
2018-03-06T03:18:28.484Z,6.47
2018-03-06T03:20:55.928Z,6.43
2018-03-06T03:23:23.418Z,6.42
2018-03-06T03:25:51.028Z,6.36
2018-03-06T03:28:18.589Z,6.38
2018-03-06T03:30:46.164Z,6.38
2018-03-06T03:33:13.611Z,6.38
2018-03-06T03:35:41.115Z,6.37
2018-03-06T03:38:08.577Z,6.36
2018-03-06T03:40:36.058Z,6.32
2018-03-06T03:43:03.507Z,6.27
2018-03-06T03:45:31.029Z,6.25
2018-03-06T03:47:58.493Z,6.20
2018-03-06T03:50:25.950Z,6.13
2018-03-06T03:52:53.436Z,6.13
2018-03-06T03:55:20.922Z,6.12
2018-03-06T03:57:49.474Z,6.06
2018-03-06T04:00:16.944Z,6.02
2018-03-06T04:02:44.412Z,6.01
2018-03-06T04:05:11.899Z,5.98
2018-03-06T04:07:39.379Z,5.92
2018-03-06T04:10:06.952Z,5.92
2018-03-06T04:12:34.706Z,5.92
2018-03-06T04:15:06.539Z,5.92
2018-03-06T04:17:33.972Z,5.92
2018-03-06T04:20:01.493Z,5.94
2018-03-06T04:22:28.950Z,5.91
2018-03-06T04:24:56.419Z,5.87
2018-03-06T04:27:23.880Z,5.84
2018-03-06T04:29:51.370Z,5.83
2018-03-06T04:32:18.816Z,5.80
2018-03-06T04:34:46.620Z,5.80
2018-03-06T04:37:14.136Z,5.79
2018-03-06T04:39:43.409Z,5.74
2018-03-06T04:42:10.901Z,5.76
2018-03-06T04:44:38.504Z,5.71
2018-03-06T04:47:06.354Z,5.65
2018-03-06T04:49:33.822Z,5.57
2018-03-06T04:52:01.304Z,5.61
2018-03-06T04:54:28.878Z,5.60
2018-03-06T04:56:56.399Z,5.61
2018-03-06T04:59:23.975Z,5.57
2018-03-06T05:01:51.440Z,5.57
2018-03-06T05:04:19.280Z,5.51
2018-03-06T05:06:46.720Z,5.50
2018-03-06T05:09:14.181Z,5.50
2018-03-06T05:11:41.720Z,5.52
2018-03-06T05:14:09.215Z,5.53
2018-03-06T05:16:36.665Z,5.48
2018-03-06T05:19:04.146Z,5.43
2018-03-06T05:21:31.611Z,5.38
2018-03-06T05:23:59.104Z,5.33
2018-03-06T05:26:26.565Z,5.35
2018-03-06T05:28:54.019Z,5.25
2018-03-06T05:31:21.486Z,5.18
2018-03-06T05:33:48.979Z,5.22
2018-03-06T05:36:16.465Z,5.24
2018-03-06T05:38:43.911Z,5.28
2018-03-06T05:41:11.448Z,5.28
2018-03-06T05:43:38.915Z,5.28
2018-03-06T05:46:06.470Z,5.28
2018-03-06T05:48:33.923Z,5.27
2018-03-06T05:51:01.388Z,5.28
2018-03-06T05:53:28.876Z,5.26
2018-03-06T05:55:56.428Z,5.26
2018-03-06T05:58:24.248Z,5.27
2018-03-06T06:00:51.741Z,5.31
2018-03-06T06:03:19.381Z,5.31
2018-03-06T06:05:46.978Z,5.29
2018-03-06T06:08:14.428Z,5.27
2018-03-06T06:10:41.908Z,5.30
2018-03-06T06:13:09.434Z,5.29
2018-03-06T06:15:36.920Z,5.25
2018-03-06T06:18:04.442Z,5.29
2018-03-06T06:20:31.932Z,5.28
2018-03-06T06:22:59.402Z,5.29
2018-03-06T06:25:26.864Z,5.29
2018-03-06T06:27:54.364Z,5.37
2018-03-06T06:30:21.954Z,5.46
2018-03-06T06:32:49.575Z,5.53
2018-03-06T06:35:17.035Z,5.57
2018-03-06T06:37:44.610Z,5.66
2018-03-06T06:40:12.072Z,5.68
2018-03-06T06:42:39.571Z,5.64
2018-03-06T06:45:07.038Z,5.68
2018-03-06T06:47:35.019Z,5.74
2018-03-06T06:50:02.567Z,5.68
2018-03-06T06:52:30.030Z,5.60
2018-03-06T06:54:57.505Z,5.55
2018-03-06T06:57:24.994Z,5.57
2018-03-06T06:59:52.485Z,5.67
2018-03-06T07:02:19.939Z,5.68
2018-03-06T07:04:47.446Z,5.72
2018-03-06T07:07:15.774Z,5.82
2018-03-06T07:09:43.389Z,5.89
2018-03-06T07:12:10.974Z,5.99
2018-03-06T07:14:38.474Z,6.12
2018-03-06T07:17:05.929Z,6.19
2018-03-06T07:19:33.419Z,6.40
2018-03-06T07:22:00.938Z,6.50
2018-03-06T07:24:28.401Z,6.65
2018-03-06T07:26:55.865Z,6.76
2018-03-06T07:29:23.335Z,6.92
2018-03-06T07:31:50.840Z,7.07
2018-03-06T07:34:18.293Z,7.21
2018-03-06T07:36:45.761Z,7.30
2018-03-06T07:39:13.270Z,7.34
2018-03-06T07:41:40.781Z,7.49
2018-03-06T07:44:08.279Z,7.60
2018-03-06T07:46:35.717Z,7.67
2018-03-06T07:49:03.167Z,7.82
2018-03-06T07:51:30.652Z,7.97
2018-03-06T07:53:58.091Z,8.07
2018-03-06T07:56:25.608Z,8.30
2018-03-06T07:58:53.219Z,8.48
2018-03-06T08:01:20.696Z,8.65
2018-03-06T08:03:48.136Z,8.87
2018-03-06T08:06:15.631Z,9.19
2018-03-06T08:08:43.077Z,9.50
2018-03-06T08:11:10.570Z,9.74
2018-03-06T08:13:38.017Z,9.89
2018-03-06T08:16:05.453Z,9.99
2018-03-06T08:18:33.041Z,10.11
2018-03-06T08:21:00.430Z,10.24
2018-03-06T08:23:27.924Z,10.47
2018-03-06T08:25:55.372Z,10.77
2018-03-06T08:28:22.838Z,11.12
2018-03-06T08:30:50.285Z,11.38
2018-03-06T08:33:17.735Z,11.47
2018-03-06T08:35:45.234Z,11.62
2018-03-06T08:38:12.702Z,11.69
2018-03-06T08:40:40.149Z,11.80
2018-03-06T08:43:07.597Z,11.86
2018-03-06T08:45:35.058Z,11.94
2018-03-06T08:48:02.553Z,12.11
2018-03-06T08:50:30.628Z,12.30
2018-03-06T08:52:58.196Z,12.34
2018-03-06T08:55:25.763Z,12.36
2018-03-06T08:57:54.275Z,11.78
2018-03-06T09:00:21.748Z,12.08
2018-03-06T09:05:23.910Z,12.90
2018-03-06T09:07:51.525Z,12.75
2018-03-06T09:10:19.256Z,13.04
2018-03-06T09:12:46.706Z,13.20
2018-03-06T09:15:14.213Z,13.47
2018-03-06T09:17:41.696Z,13.42
2018-03-06T09:20:09.235Z,13.68
2018-03-06T09:22:36.663Z,13.97
2018-03-06T09:25:04.148Z,14.38
2018-03-06T09:27:31.582Z,14.74
2018-03-06T09:29:59.042Z,15.14
2018-03-06T09:32:26.494Z,15.30
2018-03-06T09:34:53.985Z,14.93
2018-03-06T09:37:21.446Z,15.07
2018-03-06T09:39:48.946Z,15.21
2018-03-06T09:42:16.445Z,14.90
2018-03-06T09:44:43.879Z,15.30
2018-03-06T09:47:11.347Z,15.47
2018-03-06T09:49:39.732Z,15.69
2018-03-06T09:52:07.249Z,16.08
2018-03-06T09:54:34.730Z,16.26
2018-03-06T09:57:02.211Z,16.04
2018-03-06T09:59:29.673Z,15.96
2018-03-06T10:01:57.845Z,15.79
2018-03-06T10:04:25.401Z,15.93
2018-03-06T10:06:52.815Z,16.16
2018-03-06T10:09:20.308Z,16.30
2018-03-06T10:11:47.745Z,16.49
2018-03-06T10:14:15.291Z,16.69
2018-03-06T10:16:42.751Z,16.69
2018-03-06T10:19:10.220Z,17.06
2018-03-06T10:21:37.666Z,16.85
2018-03-06T10:24:05.151Z,16.79
2018-03-06T10:26:32.672Z,16.77
2018-03-06T10:29:00.165Z,16.67
2018-03-06T10:31:27.627Z,16.58
2018-03-06T10:33:55.061Z,17.05
2018-03-06T10:36:22.543Z,17.07
2018-03-06T10:38:49.983Z,16.88
2018-03-06T10:41:17.447Z,16.57
2018-03-06T10:43:44.895Z,16.51
2018-03-06T10:46:12.369Z,16.42
2018-03-06T10:48:39.866Z,16.40
2018-03-06T10:51:07.329Z,16.23
2018-03-06T10:53:34.766Z,16.21
2018-03-06T10:56:02.249Z,16.42
2018-03-06T10:58:29.761Z,16.37
2018-03-06T11:00:57.221Z,16.37
2018-03-06T11:03:24.688Z,16.23
2018-03-06T11:05:52.212Z,16.49
2018-03-06T11:08:19.766Z,16.66
2018-03-06T11:10:47.206Z,16.64
2018-03-06T11:13:14.683Z,16.35
2018-03-06T11:15:42.130Z,16.01
2018-03-06T11:18:10.140Z,15.92
2018-03-06T11:20:37.979Z,15.78
2018-03-06T11:23:05.419Z,15.62
2018-03-06T11:25:32.882Z,15.69
2018-03-06T11:28:00.356Z,15.61
2018-03-06T11:30:27.946Z,15.51
2018-03-06T11:32:55.416Z,15.52
2018-03-06T11:35:23.088Z,15.83
2018-03-06T11:37:50.870Z,15.80
2018-03-06T11:40:18.383Z,16.03
2018-03-06T11:42:45.860Z,16.28
2018-03-06T11:45:13.333Z,16.17
2018-03-06T11:47:40.789Z,16.32
2018-03-06T11:50:08.247Z,16.30
2018-03-06T11:52:35.724Z,16.28
2018-03-06T11:55:03.161Z,16.09
2018-03-06T11:57:30.615Z,15.65
2018-03-06T11:59:58.143Z,15.47
2018-03-06T12:02:25.598Z,15.45
2018-03-06T12:04:53.042Z,15.52
2018-03-06T12:07:20.519Z,15.42
2018-03-06T12:09:48.044Z,15.23
2018-03-06T12:12:15.533Z,15.07
2018-03-06T12:14:42.977Z,15.28
2018-03-06T12:17:10.794Z,15.51
2018-03-06T12:19:38.298Z,15.47
2018-03-06T12:22:05.758Z,15.80
2018-03-06T12:24:33.251Z,15.82
2018-03-06T12:27:01.128Z,15.95
2018-03-06T12:29:29.197Z,15.93
2018-03-06T12:31:57.063Z,15.89
2018-03-06T12:34:24.522Z,15.60
2018-03-06T12:36:52.030Z,15.51
2018-03-06T12:39:19.483Z,15.70
2018-03-06T12:41:48.093Z,15.66
2018-03-06T12:44:15.616Z,15.71
2018-03-06T12:46:43.124Z,15.94
2018-03-06T12:49:10.758Z,16.11
2018-03-06T12:51:38.313Z,16.29
2018-03-06T12:54:05.896Z,16.54
2018-03-06T12:56:33.380Z,16.71
2018-03-06T12:59:00.872Z,16.59
2018-03-06T13:01:28.484Z,16.61
2018-03-06T13:03:55.934Z,16.64
2018-03-06T13:06:23.394Z,16.61
2018-03-06T13:08:50.862Z,16.54
2018-03-06T13:11:18.650Z,16.53
2018-03-06T13:13:46.111Z,16.49
2018-03-06T13:16:13.624Z,16.27
2018-03-06T13:18:41.081Z,16.08
2018-03-06T13:21:08.538Z,16.05
2018-03-06T13:23:36.003Z,15.92
2018-03-06T13:26:03.439Z,15.75
2018-03-06T13:28:31.670Z,15.71
2018-03-06T13:30:59.133Z,15.78
2018-03-06T13:33:26.604Z,15.84
2018-03-06T13:35:54.056Z,15.88
2018-03-06T13:38:21.593Z,15.99
2018-03-06T13:40:49.134Z,16.05
2018-03-06T13:43:16.612Z,15.94
2018-03-06T13:45:44.281Z,15.93
2018-03-06T13:48:11.863Z,15.89
2018-03-06T13:50:39.436Z,16.05
2018-03-06T13:53:07.017Z,16.07
2018-03-06T13:55:34.489Z,16.16
2018-03-06T13:58:01.932Z,16.25
2018-03-06T14:00:29.372Z,16.23
2018-03-06T14:02:56.861Z,16.20
2018-03-06T14:05:24.327Z,16.13
2018-03-06T14:07:52.098Z,16.02
2018-03-06T14:10:19.537Z,15.86
2018-03-06T14:12:47.082Z,15.84
2018-03-06T14:15:14.569Z,15.97
2018-03-06T14:17:42.076Z,15.90
2018-03-06T14:20:09.548Z,15.90
2018-03-06T14:22:36.998Z,15.84
2018-03-06T14:25:04.524Z,15.95
2018-03-06T14:27:32.025Z,15.82
2018-03-06T14:29:59.469Z,15.83
2018-03-06T14:32:26.943Z,15.75
2018-03-06T14:34:54.444Z,15.70
2018-03-06T14:37:21.973Z,15.60
2018-03-06T14:39:50.083Z,15.67
2018-03-06T14:42:17.568Z,15.46
2018-03-06T14:44:45.030Z,15.08
2018-03-06T14:47:12.527Z,14.87
2018-03-06T14:49:39.964Z,14.96
2018-03-06T14:52:07.449Z,15.02
2018-03-06T14:54:35.238Z,15.03
2018-03-06T14:57:02.714Z,15.05
2018-03-06T14:59:30.487Z,15.07
2018-03-06T15:01:59.548Z,15.04
2018-03-06T15:04:27.169Z,14.96
2018-03-06T15:06:54.631Z,14.93
2018-03-06T15:09:22.131Z,14.79
2018-03-06T15:11:49.589Z,14.82
2018-03-06T15:14:17.066Z,14.68
2018-03-06T15:16:44.550Z,14.62
2018-03-06T15:19:12.024Z,14.66
2018-03-06T15:21:39.514Z,14.52
2018-03-06T15:24:06.966Z,14.38
2018-03-06T15:26:34.440Z,14.38
2018-03-06T15:29:08.353Z,14.45
2018-03-06T15:31:35.893Z,14.45
2018-03-06T15:34:03.471Z,14.46
2018-03-06T15:36:31.098Z,14.54
2018-03-06T15:38:58.966Z,14.51
2018-03-06T15:41:26.443Z,14.53
2018-03-06T15:43:54.012Z,14.58
2018-03-06T15:48:55.447Z,14.57
2018-03-06T15:51:22.970Z,14.48
2018-03-06T15:53:50.469Z,14.30
2018-03-06T15:56:18.068Z,14.27
2018-03-06T15:58:45.577Z,14.25
2018-03-06T16:01:13.266Z,14.23
2018-03-06T16:03:40.730Z,14.21
2018-03-06T16:06:08.903Z,13.83
2018-03-06T16:08:36.394Z,13.58
2018-03-06T16:11:03.853Z,13.62
2018-03-06T16:13:31.519Z,13.70
2018-03-06T16:15:59.103Z,13.79
2018-03-06T16:18:26.601Z,13.75
2018-03-06T16:20:54.161Z,13.79
2018-03-06T16:23:22.016Z,13.86
2018-03-06T16:25:49.455Z,13.84
2018-03-06T16:28:16.973Z,13.73
2018-03-06T16:30:44.447Z,13.63
2018-03-06T16:33:12.029Z,13.51
2018-03-06T16:35:40.149Z,13.35
2018-03-06T16:38:07.611Z,13.14
2018-03-06T16:40:35.090Z,13.10
2018-03-06T16:43:02.581Z,13.05
2018-03-06T16:45:30.069Z,12.96
2018-03-06T16:47:59.767Z,12.91
2018-03-06T16:50:29.390Z,12.82
2018-03-06T16:52:59.743Z,12.78
2018-03-06T16:55:29.447Z,12.79
2018-03-06T16:57:58.786Z,12.84
2018-03-06T17:00:28.084Z,12.89
2018-03-06T17:02:57.284Z,12.91
2018-03-06T17:05:26.716Z,12.88
2018-03-06T17:07:56.566Z,12.83
2018-03-06T17:10:25.759Z,12.80
2018-03-06T17:12:55.638Z,12.78
2018-03-06T17:15:26.141Z,12.75
2018-03-06T17:17:55.676Z,12.69
2018-03-06T17:20:25.079Z,12.68
2018-03-06T17:22:54.541Z,12.65
2018-03-06T17:25:23.584Z,12.65
2018-03-06T17:27:52.830Z,12.64
2018-03-06T17:30:23.441Z,12.59
2018-03-06T17:32:53.427Z,12.57
2018-03-06T17:35:23.664Z,12.52
2018-03-06T17:37:52.783Z,12.47
2018-03-06T17:40:26.091Z,12.35
2018-03-06T17:42:55.011Z,12.36
2018-03-06T17:45:27.928Z,12.32
2018-03-06T17:47:57.011Z,12.27
2018-03-06T17:50:26.577Z,12.23
2018-03-06T17:52:55.941Z,12.16
2018-03-06T17:55:25.006Z,12.10
2018-03-06T17:57:54.550Z,12.04
2018-03-06T18:00:24.238Z,11.94
2018-03-06T18:02:53.610Z,11.91
2018-03-06T18:05:23.327Z,11.88
2018-03-06T18:07:52.291Z,11.81
2018-03-06T18:10:21.888Z,11.73
2018-03-06T18:12:52.183Z,11.66
2018-03-06T18:15:21.553Z,11.54
2018-03-06T18:17:51.849Z,11.49
2018-03-06T18:20:21.876Z,11.10
2018-03-06T18:22:55.788Z,11.13
2018-03-06T18:25:25.307Z,11.18
2018-03-06T18:27:54.768Z,11.20
2018-03-06T18:30:22.676Z,11.22
2018-03-06T18:32:50.204Z,11.23
2018-03-06T18:35:17.700Z,11.22
2018-03-06T18:37:45.453Z,10.94
2018-03-06T18:40:12.987Z,10.93
2018-03-06T18:42:40.436Z,10.97
2018-03-06T18:45:07.908Z,10.98
2018-03-06T18:47:35.696Z,10.97
2018-03-06T18:50:04.050Z,10.93
2018-03-06T18:52:31.582Z,10.88
2018-03-06T18:54:59.089Z,10.88
2018-03-06T18:57:28.223Z,10.84
2018-03-06T19:00:01.881Z,10.78
2018-03-06T19:05:41.181Z,10.64
2018-03-06T19:08:08.761Z,10.57
2018-03-06T19:10:36.254Z,10.55
2018-03-06T19:13:03.740Z,10.51
2018-03-06T19:15:31.220Z,10.44
2018-03-06T19:17:58.978Z,10.41
2018-03-06T19:20:26.735Z,10.40
2018-03-06T19:22:54.332Z,10.41
2018-03-06T19:25:21.954Z,10.36
2018-03-06T19:27:49.558Z,10.33
2018-03-06T19:30:17.105Z,10.33
2018-03-06T19:32:44.586Z,10.33
2018-03-06T19:35:12.242Z,10.32
2018-03-06T19:37:39.748Z,10.31
2018-03-06T19:40:07.258Z,10.33
2018-03-06T19:42:34.747Z,10.31
2018-03-06T19:45:02.235Z,10.31
2018-03-06T19:47:29.752Z,10.31
2018-03-06T19:49:57.253Z,10.30
2018-03-06T19:52:24.794Z,10.29
2018-03-06T19:54:52.375Z,10.27
2018-03-06T19:57:20.787Z,10.19
2018-03-06T19:59:48.330Z,10.11
2018-03-06T20:02:15.995Z,10.04
2018-03-06T20:04:43.543Z,10.02
2018-03-06T20:07:11.058Z,10.06
2018-03-06T20:09:38.647Z,10.06
2018-03-06T20:12:06.236Z,10.07
2018-03-06T20:17:34.814Z,10.13
2018-03-06T20:20:05.036Z,10.11
2018-03-06T20:22:34.131Z,10.09
2018-03-06T20:28:06.606Z,10.00
2018-03-06T20:30:39.675Z,9.99
2018-03-06T20:33:12.910Z,10.02
2018-03-06T20:35:40.409Z,10.02
2018-03-06T20:38:07.935Z,10.00
2018-03-06T20:40:35.828Z,9.99
2018-03-06T20:43:03.302Z,10.01
2018-03-06T20:45:36.835Z,10.12
2018-03-06T20:48:04.279Z,9.84
